Time;durP1;ratioP1;P1;durP2;ratioP2;P2;SDS_P1;SDS_P2;PMS_P1;PMS_P2;Temp;Humidity;BMP_temperature;BMP_pressure;BME280_temperature;BME280_humidity;BME280_pressure;Samples;Min_cycle;Max_cycle;Signal;HPM_P1;HPM_P2
2023/05/26 00:01:46;;;;;;;15.88;10.63;;;;;;;;;;4970528;28;20041;-77
2023/05/26 00:04:17;;;;;;;16.80;9.75;;;;;;;;;;4976543;28;20031;-76
2023/05/26 00:06:46;;;;;;;11.73;8.68;;;;;;;;;;4972952;28;20100;-75
2023/05/26 00:09:12;;;;;;;15.00;10.07;;;;;;;;;;4971206;28;20034;-75
2023/05/26 00:11:37;;;;;;;14.52;9.77;;;;;;;;;;4973157;28;20023;-74
2023/05/26 00:14:02;;;;;;;13.90;9.40;;;;;;;;;;4966573;28;20030;-76
2023/05/26 00:16:28;;;;;;;11.18;7.60;;;;;;;;;;4966249;28;20426;-73
2023/05/26 00:18:53;;;;;;;7.28;6.55;;;;;;;;;;4968030;28;20035;-74
2023/05/26 00:21:18;;;;;;;8.13;7.30;;;;;;;;;;4963548;28;20026;-76
2023/05/26 00:23:44;;;;;;;8.95;7.20;;;;;;;;;;4974337;28;20033;-75
2023/05/26 00:26:09;;;;;;;16.40;9.38;;;;;;;;;;4971702;28;20039;-74
2023/05/26 00:28:34;;;;;;;13.32;9.40;;;;;;;;;;4973566;28;20035;-74
2023/05/26 00:31:00;;;;;;;10.30;8.63;;;;;;;;;;4974322;28;20035;-74
2023/05/26 00:33:25;;;;;;;11.85;7.80;;;;;;;;;;4972765;28;20066;-74
2023/05/26 00:35:50;;;;;;;8.43;7.35;;;;;;;;;;4968293;28;20026;-73
2023/05/26 00:38:16;;;;;;;7.57;6.80;;;;;;;;;;4968292;28;20038;-75
2023/05/26 00:40:41;;;;;;;10.27;7.63;;;;;;;;;;4972370;28;20026;-77
2023/05/26 00:43:07;;;;;;;21.77;11.68;;;;;;;;;;4972230;28;22478;-74
2023/05/26 00:45:32;;;;;;;20.98;11.75;;;;;;;;;;4973422;28;20063;-74
2023/05/26 00:47:57;;;;;;;15.90;9.82;;;;;;;;;;4972060;28;20490;-76
2023/05/26 00:50:23;;;;;;;8.35;7.10;;;;;;;;;;4960235;28;20085;-74
2023/05/26 00:52:48;;;;;;;9.63;7.32;;;;;;;;;;4969405;28;20420;-74
2023/05/26 00:55:14;;;;;;;9.13;7.65;;;;;;;;;;4964864;28;20041;-74
2023/05/26 00:57:40;;;;;;;9.75;7.63;;;;;;;;;;4974926;28;20390;-74
2023/05/26 01:00:08;;;;;;;8.25;7.15;;;;;;;;;;4960638;28;20031;-77
2023/05/26 01:02:35;;;;;;;10.77;8.65;;;;;;;;;;4964809;28;20338;-74
2023/05/26 01:05:00;;;;;;;13.40;8.48;;;;;;;;;;4975247;28;20041;-73
2023/05/26 01:07:26;;;;;;;8.15;7.32;;;;;;;;;;4973249;28;20118;-76
2023/05/26 01:09:51;;;;;;;11.60;7.90;;;;;;;;;;4968473;28;20022;-74
2023/05/26 01:12:35;;;;;;;8.68;7.80;;;;;;;;;;4966745;28;20052;-76
2023/05/26 01:15:11;;;;;;;8.05;7.35;;;;;;;;;;4974185;28;20121;-73
2023/05/26 01:17:38;;;;;;;14.02;10.13;;;;;;;;;;4964910;28;20068;-74
2023/05/26 01:20:23;;;;;;;11.40;9.68;;;;;;;;;;4977210;28;20038;-74
2023/05/26 01:22:51;;;;;;;14.45;10.45;;;;;;;;;;4976758;28;20031;-73
2023/05/26 01:25:19;;;;;;;11.13;9.13;;;;;;;;;;4964015;28;20862;-74
2023/05/26 01:27:49;;;;;;;13.20;10.02;;;;;;;;;;4976111;28;20456;-73
2023/05/26 01:30:16;;;;;;;11.35;8.98;;;;;;;;;;5046907;28;20441;-73
2023/05/26 01:32:47;;;;;;;9.88;8.25;;;;;;;;;;4974921;28;20092;-73
2023/05/26 01:35:13;;;;;;;12.38;8.35;;;;;;;;;;4975546;28;20038;-74
2023/05/26 01:37:38;;;;;;;7.93;7.13;;;;;;;;;;4974720;28;20437;-74
2023/05/26 01:40:04;;;;;;;8.43;7.57;;;;;;;;;;4977160;28;20022;-75
2023/05/26 01:42:32;;;;;;;12.30;8.35;;;;;;;;;;4977224;28;20082;-74
2023/05/26 01:45:06;;;;;;;9.20;8.18;;;;;;;;;;4966951;28;20033;-73
2023/05/26 01:47:32;;;;;;;9.13;7.90;;;;;;;;;;4974911;28;22302;-73
2023/05/26 01:50:00;;;;;;;9.73;8.05;;;;;;;;;;4964673;28;20029;-74
2023/05/26 01:52:26;;;;;;;8.77;7.90;;;;;;;;;;4974770;28;20026;-74
2023/05/26 01:54:56;;;;;;;12.23;8.20;;;;;;;;;;4975326;28;20035;-75
2023/05/26 01:57:21;;;;;;;22.98;9.57;;;;;;;;;;4973163;28;21168;-74
2023/05/26 01:59:46;;;;;;;18.17;12.10;;;;;;;;;;4964316;28;20048;-74
2023/05/26 02:02:12;;;;;;;14.98;11.10;;;;;;;;;;4974850;28;20031;-75
2023/05/26 02:04:37;;;;;;;11.30;7.85;;;;;;;;;;4974805;28;20406;-73
2023/05/26 02:07:05;;;;;;;12.40;7.45;;;;;;;;;;4976975;28;20403;-74
2023/05/26 02:09:31;;;;;;;9.32;7.35;;;;;;;;;;4966975;28;20480;-74
2023/05/26 02:11:56;;;;;;;8.88;7.45;;;;;;;;;;4974160;28;20026;-73
2023/05/26 02:14:21;;;;;;;10.25;7.15;;;;;;;;;;4975355;28;20038;-73
2023/05/26 02:16:47;;;;;;;8.93;7.40;;;;;;;;;;4969218;28;20030;-74
2023/05/26 02:19:13;;;;;;;9.85;7.57;;;;;;;;;;4968945;28;20030;-73
2023/05/26 02:21:38;;;;;;;11.40;8.20;;;;;;;;;;4976324;28;20037;-74
2023/05/26 02:24:04;;;;;;;10.40;7.80;;;;;;;;;;4975984;28;20041;-75
2023/05/26 02:26:30;;;;;;;10.50;7.18;;;;;;;;;;4979987;28;20559;-75
2023/05/26 02:28:56;;;;;;;8.65;7.00;;;;;;;;;;4976351;28;20034;-74
2023/05/26 02:31:22;;;;;;;9.43;7.00;;;;;;;;;;4969338;28;20026;-74
2023/05/26 02:33:48;;;;;;;9.57;7.60;;;;;;;;;;4960755;28;20042;-74
2023/05/26 02:36:13;;;;;;;9.05;7.90;;;;;;;;;;4969039;28;20494;-74
2023/05/26 02:38:39;;;;;;;12.90;7.85;;;;;;;;;;4964956;28;20121;-74
2023/05/26 02:41:05;;;;;;;11.48;9.05;;;;;;;;;;4973169;28;20034;-73
2023/05/26 02:43:30;;;;;;;9.70;8.05;;;;;;;;;;4969476;28;20055;-74
2023/05/26 02:45:55;;;;;;;9.43;8.50;;;;;;;;;;4968335;28;20033;-74
2023/05/26 02:48:21;;;;;;;10.20;8.50;;;;;;;;;;4965017;28;20033;-74
2023/05/26 02:50:46;;;;;;;9.02;8.13;;;;;;;;;;4973271;28;20033;-74
2023/05/26 02:53:11;;;;;;;13.30;7.88;;;;;;;;;;4973942;28;20114;-73
2023/05/26 02:55:38;;;;;;;10.75;8.18;;;;;;;;;;4968158;28;20912;-72
2023/05/26 02:58:03;;;;;;;8.00;7.20;;;;;;;;;;4970253;28;20030;-73
2023/05/26 03:00:29;;;;;;;7.72;6.57;;;;;;;;;;4975992;28;20034;-72
2023/05/26 03:02:54;;;;;;;9.27;6.63;;;;;;;;;;4970407;28;20033;-72
2023/05/26 03:05:20;;;;;;;9.93;6.30;;;;;;;;;;4967146;28;20038;-73
2023/05/26 03:07:45;;;;;;;8.65;6.60;;;;;;;;;;4965091;28;20096;-72
2023/05/26 03:10:10;;;;;;;8.45;7.30;;;;;;;;;;4963337;28;20041;-72
2023/05/26 03:12:36;;;;;;;8.75;7.68;;;;;;;;;;4959463;28;20464;-72
2023/05/26 03:15:03;;;;;;;10.23;7.60;;;;;;;;;;4951151;28;20077;-72
2023/05/26 03:17:28;;;;;;;8.18;7.10;;;;;;;;;;4950415;28;20035;-74
2023/05/26 03:19:55;;;;;;;7.30;6.50;;;;;;;;;;4951908;28;20023;-75
2023/05/26 03:22:21;;;;;;;9.60;7.47;;;;;;;;;;4948521;28;20039;-76
2023/05/26 03:24:46;;;;;;;8.52;7.70;;;;;;;;;;4950020;28;20026;-75
2023/05/26 03:27:12;;;;;;;9.57;6.18;;;;;;;;;;4949720;28;20019;-73
2023/05/26 03:29:37;;;;;;;7.85;6.32;;;;;;;;;;4954260;28;20439;-73
2023/05/26 03:32:02;;;;;;;8.75;6.75;;;;;;;;;;4949753;28;20035;-75
2023/05/26 03:34:28;;;;;;;6.70;6.07;;;;;;;;;;4949178;28;20080;-74
2023/05/26 03:36:54;;;;;;;8.02;6.20;;;;;;;;;;4956320;28;20081;-73
2023/05/26 03:39:21;;;;;;;8.05;6.35;;;;;;;;;;4958206;28;20627;-72
2023/05/26 03:41:47;;;;;;;10.43;7.13;;;;;;;;;;4953837;28;20701;-73
2023/05/26 03:44:12;;;;;;;9.57;6.78;;;;;;;;;;4952966;28;20026;-75
2023/05/26 03:46:39;;;;;;;7.38;6.63;;;;;;;;;;4951722;28;20612;-73
2023/05/26 03:49:05;;;;;;;10.27;6.85;;;;;;;;;;4954334;28;20022;-72
2023/05/26 03:51:30;;;;;;;8.43;6.55;;;;;;;;;;4968340;28;20453;-73
2023/05/26 03:53:55;;;;;;;9.00;6.50;;;;;;;;;;4947210;28;20023;-73
2023/05/26 03:56:21;;;;;;;8.10;6.80;;;;;;;;;;4951419;28;20030;-72
2023/05/26 03:58:46;;;;;;;9.43;6.68;;;;;;;;;;4950735;28;20034;-75
2023/05/26 04:01:12;;;;;;;8.32;7.05;;;;;;;;;;4948882;28;20459;-73
2023/05/26 04:03:38;;;;;;;8.75;7.88;;;;;;;;;;4949675;28;20023;-73
2023/05/26 04:06:03;;;;;;;9.07;7.05;;;;;;;;;;4954592;28;20076;-72
2023/05/26 04:08:30;;;;;;;10.65;7.85;;;;;;;;;;4962564;28;20054;-72
2023/05/26 04:10:55;;;;;;;9.95;7.28;;;;;;;;;;4972536;28;20051;-74
2023/05/26 04:13:21;;;;;;;11.38;7.70;;;;;;;;;;4973710;28;20085;-74
2023/05/26 04:15:46;;;;;;;8.27;7.47;;;;;;;;;;4972474;28;20096;-76
2023/05/26 04:18:11;;;;;;;9.30;7.35;;;;;;;;;;4970583;28;20027;-80
2023/05/26 04:20:37;;;;;;;11.73;7.82;;;;;;;;;;4973219;28;20129;-75
2023/05/26 04:23:02;;;;;;;8.73;8.02;;;;;;;;;;4974577;28;20030;-76
2023/05/26 04:25:28;;;;;;;8.73;7.82;;;;;;;;;;4972188;28;20067;-74
2023/05/26 04:27:56;;;;;;;8.35;7.15;;;;;;;;;;4963627;28;20019;-74
2023/05/26 04:30:22;;;;;;;8.88;6.75;;;;;;;;;;4973712;28;20053;-75
2023/05/26 04:32:48;;;;;;;10.80;7.43;;;;;;;;;;4973346;28;20149;-74
2023/05/26 04:35:13;;;;;;;7.78;6.97;;;;;;;;;;4972412;28;20117;-75
2023/05/26 04:37:40;;;;;;;14.45;9.50;;;;;;;;;;4975356;28;20037;-74
2023/05/26 04:40:09;;;;;;;18.95;11.85;;;;;;;;;;4967601;28;20028;-74
2023/05/26 04:42:36;;;;;;;16.73;11.65;;;;;;;;;;4955843;28;20129;-75
2023/05/26 04:45:05;;;;;;;16.42;8.75;;;;;;;;;;4976429;28;20059;-76
2023/05/26 04:47:34;;;;;;;8.73;7.82;;;;;;;;;;4961651;28;20031;-74
2023/05/26 04:50:01;;;;;;;13.80;7.32;;;;;;;;;;4960089;28;20026;-76
2023/05/26 04:52:27;;;;;;;9.10;6.95;;;;;;;;;;4967070;28;20030;-75
2023/05/26 04:54:52;;;;;;;7.63;6.63;;;;;;;;;;4977627;28;20040;-75
2023/05/26 04:57:18;;;;;;;9.38;7.05;;;;;;;;;;4973929;28;20449;-76
2023/05/26 04:59:44;;;;;;;8.07;7.38;;;;;;;;;;4976391;28;20400;-75
2023/05/26 05:02:10;;;;;;;10.80;7.30;;;;;;;;;;4974367;28;20031;-74
2023/05/26 05:04:35;;;;;;;12.05;8.63;;;;;;;;;;4976214;28;20029;-74
2023/05/26 05:07:01;;;;;;;15.07;9.68;;;;;;;;;;4977352;28;20096;-74
2023/05/26 05:09:26;;;;;;;15.68;11.55;;;;;;;;;;4970508;28;20373;-74
2023/05/26 05:11:52;;;;;;;28.55;22.95;;;;;;;;;;4973532;28;20471;-77
2023/05/26 05:14:17;;;;;;;25.95;19.38;;;;;;;;;;4976605;28;20030;-80
2023/05/26 05:16:43;;;;;;;18.00;13.98;;;;;;;;;;4972464;28;20022;-77
2023/05/26 05:19:09;;;;;;;9.82;8.77;;;;;;;;;;4958077;28;20034;-74
2023/05/26 05:21:34;;;;;;;10.32;9.20;;;;;;;;;;4962611;28;20468;-74
2023/05/26 05:23:59;;;;;;;10.13;8.40;;;;;;;;;;4961292;28;20037;-74
2023/05/26 05:26:25;;;;;;;10.23;8.50;;;;;;;;;;4962469;28;20027;-74
2023/05/26 05:28:50;;;;;;;9.35;7.63;;;;;;;;;;4963371;28;20029;-74
2023/05/26 05:31:16;;;;;;;8.30;6.93;;;;;;;;;;4963509;28;20033;-74
2023/05/26 05:33:42;;;;;;;8.40;7.65;;;;;;;;;;4961838;28;20481;-75
2023/05/26 05:36:08;;;;;;;8.65;7.78;;;;;;;;;;4975968;28;20026;-75
2023/05/26 05:38:33;;;;;;;9.02;7.10;;;;;;;;;;4975688;28;20045;-75
2023/05/26 05:40:59;;;;;;;9.68;7.60;;;;;;;;;;4970942;28;20106;-74
2023/05/26 05:43:24;;;;;;;9.52;7.40;;;;;;;;;;4963229;28;20065;-74
2023/05/26 05:45:50;;;;;;;8.25;7.45;;;;;;;;;;4960311;28;20026;-76
2023/05/26 05:48:15;;;;;;;8.40;7.47;;;;;;;;;;4962251;28;20027;-73
2023/05/26 05:50:40;;;;;;;8.60;7.80;;;;;;;;;;4962937;28;20031;-73
2023/05/26 05:53:06;;;;;;;8.55;7.75;;;;;;;;;;4973420;28;20111;-73
2023/05/26 06:07:19;;;;;;;10.38;9.38;;;;;;;;;;5090352;27;20642;-77
2023/05/26 06:09:45;;;;;;;10.55;9.55;;;;;;;;;;5090096;28;20462;-77
2023/05/26 06:12:10;;;;;;;9.80;8.07;;;;;;;;;;5089943;28;20052;-78
2023/05/26 06:14:35;;;;;;;9.48;8.48;;;;;;;;;;5090090;28;20024;-78
2023/05/26 06:17:01;;;;;;;11.07;9.50;;;;;;;;;;5090175;28;20027;-76
2023/05/26 06:19:26;;;;;;;11.25;10.10;;;;;;;;;;5090292;28;20052;-77
2023/05/26 06:21:51;;;;;;;9.95;8.95;;;;;;;;;;5089907;28;20025;-77
2023/05/26 06:24:17;;;;;;;10.23;9.15;;;;;;;;;;5089966;28;20024;-76
2023/05/26 06:26:42;;;;;;;9.82;8.82;;;;;;;;;;5090108;28;20028;-77
2023/05/26 06:29:07;;;;;;;10.50;9.43;;;;;;;;;;5089899;28;20426;-77
2023/05/26 06:31:33;;;;;;;10.02;8.90;;;;;;;;;;5090303;28;20020;-76
2023/05/26 06:33:58;;;;;;;11.35;10.20;;;;;;;;;;5089697;28;20088;-78
2023/05/26 06:36:24;;;;;;;10.57;9.57;;;;;;;;;;5089773;28;20024;-77
2023/05/26 06:38:49;;;;;;;11.32;9.43;;;;;;;;;;5089813;28;20028;-77
2023/05/26 06:41:14;;;;;;;9.70;8.70;;;;;;;;;;5089565;28;20032;-77
2023/05/26 06:43:40;;;;;;;9.38;8.55;;;;;;;;;;5089805;28;20029;-77
2023/05/26 06:46:05;;;;;;;10.27;9.30;;;;;;;;;;5089567;28;20027;-76
2023/05/26 06:48:30;;;;;;;9.13;8.23;;;;;;;;;;5089195;28;20024;-75
2023/05/26 06:50:56;;;;;;;9.50;8.60;;;;;;;;;;5089323;28;20393;-78
2023/05/26 06:53:21;;;;;;;10.52;8.63;;;;;;;;;;5089565;28;20028;-76
2023/05/26 06:55:47;;;;;;;14.70;11.65;;;;;;;;;;5089044;28;20017;-75
2023/05/26 06:58:12;;;;;;;10.65;9.55;;;;;;;;;;5089375;28;20085;-76
2023/05/26 07:00:37;;;;;;;11.75;10.55;;;;;;;;;;5088785;28;20128;-75
2023/05/26 07:03:03;;;;;;;9.13;8.23;;;;;;;;;;5089166;28;20020;-76
2023/05/26 07:05:28;;;;;;;7.60;6.90;;;;;;;;;;5093896;28;20048;-75
2023/05/26 07:07:54;;;;;;;7.03;6.32;;;;;;;;;;5090775;28;20028;-76
2023/05/26 07:10:19;;;;;;;6.68;5.95;;;;;;;;;;5084973;28;20350;-78
2023/05/26 07:12:45;;;;;;;6.38;5.88;;;;;;;;;;5085861;28;20641;-76
2023/05/26 07:15:10;;;;;;;6.57;6.05;;;;;;;;;;5093654;28;20109;-78
2023/05/26 07:17:36;;;;;;;9.18;6.05;;;;;;;;;;5085270;28;20077;-77
2023/05/26 07:20:01;;;;;;;6.20;5.60;;;;;;;;;;5084024;28;20107;-78
2023/05/26 07:22:27;;;;;;;5.88;5.28;;;;;;;;;;5068938;28;20035;-75
2023/05/26 07:24:52;;;;;;;5.93;5.35;;;;;;;;;;5075311;28;20028;-76
2023/05/26 07:27:17;;;;;;;5.43;4.93;;;;;;;;;;5074884;28;20093;-76
2023/05/26 07:29:43;;;;;;;5.18;4.78;;;;;;;;;;5069992;28;20110;-76
2023/05/26 07:32:08;;;;;;;5.97;5.47;;;;;;;;;;5070519;28;20105;-76
2023/05/26 07:34:33;;;;;;;6.45;5.85;;;;;;;;;;5071606;28;20024;-75
2023/05/26 07:36:59;;;;;;;6.28;5.78;;;;;;;;;;5070404;28;20024;-77
2023/05/26 07:39:24;;;;;;;7.00;5.57;;;;;;;;;;5070468;28;20435;-74
2023/05/26 07:41:49;;;;;;;6.85;6.22;;;;;;;;;;5070256;28;20098;-78
2023/05/26 07:44:15;;;;;;;5.43;4.93;;;;;;;;;;5072242;28;20030;-79
2023/05/26 07:46:40;;;;;;;10.00;5.30;;;;;;;;;;5069701;28;20024;-77
2023/05/26 07:49:06;;;;;;;5.80;5.05;;;;;;;;;;5069684;28;20035;-75
2023/05/26 07:51:32;;;;;;;5.47;4.97;;;;;;;;;;5069877;28;20716;-77
2023/05/26 07:53:57;;;;;;;5.65;4.88;;;;;;;;;;5070374;28;20504;-76
2023/05/26 07:56:22;;;;;;;4.50;4.13;;;;;;;;;;5070058;28;20051;-75
2023/05/26 07:58:48;;;;;;;4.93;4.53;;;;;;;;;;5071047;28;20028;-76
2023/05/26 08:01:13;;;;;;;5.00;4.43;;;;;;;;;;5059110;28;20024;-76
2023/05/26 08:03:39;;;;;;;5.13;4.70;;;;;;;;;;5068446;28;20117;-78
2023/05/26 08:06:04;;;;;;;5.75;3.95;;;;;;;;;;5070457;28;20044;-76
2023/05/26 08:08:30;;;;;;;5.10;4.63;;;;;;;;;;5070647;28;20426;-74
2023/05/26 08:10:55;;;;;;;4.97;4.57;;;;;;;;;;5069889;28;20023;-78
2023/05/26 08:13:20;;;;;;;5.63;5.13;;;;;;;;;;5069756;28;20498;-75
2023/05/26 08:15:46;;;;;;;4.93;4.53;;;;;;;;;;5069529;28;20539;-74
2023/05/26 08:18:12;;;;;;;4.95;4.47;;;;;;;;;;5068857;28;20066;-74
2023/05/26 08:20:37;;;;;;;4.70;4.30;;;;;;;;;;5069856;28;20081;-74
2023/05/26 08:23:03;;;;;;;4.68;4.38;;;;;;;;;;5069802;28;20051;-75
2023/05/26 08:25:28;;;;;;;5.00;4.60;;;;;;;;;;5069398;28;20354;-74
2023/05/26 08:27:54;;;;;;;4.93;4.43;;;;;;;;;;5069169;28;20039;-74
2023/05/26 08:30:19;;;;;;;4.88;4.45;;;;;;;;;;5070012;28;20103;-75
2023/05/26 08:32:45;;;;;;;5.15;4.72;;;;;;;;;;5069106;28;20039;-74
2023/05/26 08:35:10;;;;;;;5.05;4.65;;;;;;;;;;5069262;28;20071;-76
2023/05/26 08:37:35;;;;;;;5.70;5.05;;;;;;;;;;5069314;28;20416;-74
2023/05/26 08:40:04;;;;;;;5.10;4.70;;;;;;;;;;5069216;28;20027;-78
2023/05/26 08:42:32;;;;;;;6.50;4.97;;;;;;;;;;5069377;28;20023;-77
2023/05/26 08:44:57;;;;;;;5.53;5.03;;;;;;;;;;5067805;28;20030;-78
2023/05/26 08:47:24;;;;;;;5.20;4.60;;;;;;;;;;5069650;28;20358;-76
2023/05/26 08:49:52;;;;;;;4.47;4.07;;;;;;;;;;5069542;28;20035;-76
2023/05/26 08:52:18;;;;;;;5.07;4.57;;;;;;;;;;5069564;28;20350;-74
2023/05/26 08:54:44;;;;;;;5.82;4.03;;;;;;;;;;5068652;28;20103;-77
2023/05/26 08:57:11;;;;;;;5.00;4.50;;;;;;;;;;5069123;28;20111;-77
2023/05/26 08:59:37;;;;;;;4.72;4.32;;;;;;;;;;5069597;28;20028;-76
2023/05/26 09:02:03;;;;;;;3.75;3.47;;;;;;;;;;5069445;28;20047;-76
2023/05/26 09:04:29;;;;;;;4.60;4.20;;;;;;;;;;5068960;28;20418;-75
2023/05/26 09:06:54;;;;;;;4.85;3.72;;;;;;;;;;5068276;28;20183;-75
2023/05/26 09:09:20;;;;;;;5.28;3.85;;;;;;;;;;5069785;28;20137;-77
2023/05/26 09:11:48;;;;;;;4.10;3.70;;;;;;;;;;5069442;28;20463;-77
2023/05/26 09:14:17;;;;;;;3.90;3.60;;;;;;;;;;5068752;28;20107;-75
2023/05/26 09:16:42;;;;;;;3.83;3.53;;;;;;;;;;5067798;28;20111;-75
2023/05/26 09:19:12;;;;;;;3.55;3.35;;;;;;;;;;5068198;28;20110;-76
2023/05/26 09:21:38;;;;;;;4.50;4.10;;;;;;;;;;5068353;28;20037;-74
2023/05/26 09:24:03;;;;;;;4.25;3.85;;;;;;;;;;5074199;28;20461;-75
2023/05/26 09:26:33;;;;;;;5.15;4.22;;;;;;;;;;5077922;28;20028;-77
2023/05/26 09:29:00;;;;;;;5.18;3.92;;;;;;;;;;5070235;28;20055;-76
2023/05/26 09:31:25;;;;;;;6.28;4.20;;;;;;;;;;5069971;28;20024;-76
2023/05/26 09:33:52;;;;;;;5.10;3.95;;;;;;;;;;5074025;28;20097;-75
2023/05/26 09:36:22;;;;;;;4.47;3.70;;;;;;;;;;5080510;28;20059;-77
2023/05/26 09:38:49;;;;;;;4.18;3.80;;;;;;;;;;5079986;28;20055;-78
2023/05/26 09:41:17;;;;;;;4.53;4.13;;;;;;;;;;5069507;28;20470;-76
2023/05/26 09:43:43;;;;;;;4.30;4.00;;;;;;;;;;5082051;28;20034;-76
2023/05/26 09:46:19;;;;;;;4.45;4.00;;;;;;;;;;5082404;28;20585;-75
2023/05/26 09:48:48;;;;;;;4.47;4.07;;;;;;;;;;5081908;28;20032;-76
2023/05/26 09:51:17;;;;;;;5.75;3.90;;;;;;;;;;5070122;28;20085;-77
2023/05/26 09:53:42;;;;;;;6.43;3.95;;;;;;;;;;5081904;28;20396;-74
2023/05/26 09:56:08;;;;;;;4.32;3.92;;;;;;;;;;5081098;28;20040;-75
2023/05/26 09:58:38;;;;;;;6.00;3.65;;;;;;;;;;5082014;28;20040;-75
2023/05/26 10:01:05;;;;;;;3.95;3.50;;;;;;;;;;5082081;28;20035;-74
2023/05/26 10:03:31;;;;;;;3.92;3.63;;;;;;;;;;5081975;28;20039;-77
2023/05/26 10:05:57;;;;;;;5.32;3.63;;;;;;;;;;5081805;28;20123;-78
2023/05/26 10:08:23;;;;;;;6.18;4.65;;;;;;;;;;5081906;28;20477;-76
2023/05/26 10:10:50;;;;;;;4.30;4.00;;;;;;;;;;5082275;28;20102;-74
2023/05/26 10:13:17;;;;;;;5.70;4.22;;;;;;;;;;5081664;28;20024;-75
2023/05/26 10:15:42;;;;;;;8.05;4.35;;;;;;;;;;5082269;28;20024;-77
2023/05/26 10:18:08;;;;;;;10.40;4.85;;;;;;;;;;5081452;28;20073;-77
2023/05/26 10:20:35;;;;;;;8.13;4.72;;;;;;;;;;5081368;28;20024;-77
2023/05/26 10:23:02;;;;;;;4.85;4.38;;;;;;;;;;5080981;28;20572;-75
2023/05/26 10:25:37;;;;;;;7.13;4.70;;;;;;;;;;5081816;28;20820;-74
2023/05/26 10:28:09;;;;;;;4.80;4.40;;;;;;;;;;5082689;28;20028;-78
2023/05/26 10:30:36;;;;;;;6.43;4.97;;;;;;;;;;5082146;28;20028;-77
2023/05/26 10:33:08;;;;;;;7.00;5.40;;;;;;;;;;5081520;28;20415;-75
2023/05/26 10:35:34;;;;;;;5.65;5.05;;;;;;;;;;5081477;28;20058;-74
2023/05/26 10:38:02;;;;;;;6.72;6.13;;;;;;;;;;5081976;28;20078;-74
2023/05/26 10:40:51;;;;;;;7.03;6.32;;;;;;;;;;5082240;28;20087;-76
2023/05/26 10:43:20;;;;;;;5.37;4.93;;;;;;;;;;5078380;28;20040;-78
2023/05/26 10:45:45;;;;;;;;;;;;;;;;;;5085938;28;20333;-77
2023/05/26 10:48:11;;;;;;;6.17;5.03;;;;;;;;;;5086122;28;20532;-76
2023/05/26 10:50:54;;;;;;;6.57;5.25;;;;;;;;;;5085855;28;20040;-76
2023/05/26 10:53:23;;;;;;;5.35;4.88;;;;;;;;;;5085409;28;20439;-78
2023/05/26 10:55:53;;;;;;;4.85;4.38;;;;;;;;;;5084956;28;20089;-78
2023/05/26 10:58:38;;;;;;;4.88;4.45;;;;;;;;;;5085331;28;20028;-78
2023/05/26 11:01:06;;;;;;;9.45;4.60;;;;;;;;;;5069013;28;20463;-77
2023/05/26 11:03:32;;;;;;;6.63;4.65;;;;;;;;;;5082326;28;20039;-76
2023/05/26 11:05:57;;;;;;;5.22;4.80;;;;;;;;;;5076632;28;20044;-76
2023/05/26 11:08:22;;;;;;;4.38;4.03;;;;;;;;;;5084430;28;20424;-76
2023/05/26 11:10:57;;;;;;;4.85;4.38;;;;;;;;;;5081919;28;20512;-76
2023/05/26 11:13:50;;;;;;;5.35;4.90;;;;;;;;;;5083358;28;20023;-75
2023/05/26 11:16:16;;;;;;;6.63;6.05;;;;;;;;;;5080634;28;20035;-75
2023/05/26 11:18:47;;;;;;;8.60;6.45;;;;;;;;;;5085496;28;20046;-75
2023/05/26 11:21:13;;;;;;;6.65;5.60;;;;;;;;;;5084593;28;20020;-74
2023/05/26 11:23:38;;;;;;;6.15;5.45;;;;;;;;;;5085688;28;20027;-74
2023/05/26 11:26:10;;;;;;;5.85;5.25;;;;;;;;;;5084861;28;20485;-76
2023/05/26 11:28:39;;;;;;;7.43;5.22;;;;;;;;;;5070856;28;20020;-76
2023/05/26 11:31:14;;;;;;;6.53;5.20;;;;;;;;;;5081118;28;20622;-74
2023/05/26 11:33:40;;;;;;;8.75;5.20;;;;;;;;;;5082024;28;20039;-73
2023/05/26 11:36:10;;;;;;;7.30;4.88;;;;;;;;;;5084300;28;20032;-75
2023/05/26 11:38:36;;;;;;;5.97;4.55;;;;;;;;;;5070696;28;20402;-75
2023/05/26 11:41:12;;;;;;;6.72;4.18;;;;;;;;;;5084570;28;20063;-76
2023/05/26 11:43:38;;;;;;;4.50;4.10;;;;;;;;;;5084645;28;20342;-74
2023/05/26 11:46:05;;;;;;;7.13;4.03;;;;;;;;;;5084639;28;20040;-74
2023/05/26 11:48:35;;;;;;;5.10;4.20;;;;;;;;;;5082914;28;20036;-75
2023/05/26 11:51:19;;;;;;;7.43;4.43;;;;;;;;;;5067499;28;20032;-78
2023/05/26 11:53:46;;;;;;;4.88;4.25;;;;;;;;;;5077477;28;20115;-76
2023/05/26 11:56:13;;;;;;;5.35;3.85;;;;;;;;;;5077287;28;20075;-75
2023/05/26 11:58:46;;;;;;;5.95;3.55;;;;;;;;;;5074436;28;20024;-75
2023/05/26 12:01:11;;;;;;;5.03;3.70;;;;;;;;;;5083858;28;20062;-75
2023/05/26 12:03:40;;;;;;;5.78;3.47;;;;;;;;;;5083882;28;20109;-78
2023/05/26 12:06:21;;;;;;;4.53;3.40;;;;;;;;;;5083818;28;20048;-75
2023/05/26 12:08:47;;;;;;;3.80;3.40;;;;;;;;;;5084346;28;20036;-76
2023/05/26 12:11:22;;;;;;;4.55;3.60;;;;;;;;;;5084232;28;20024;-75
2023/05/26 12:13:49;;;;;;;4.13;3.72;;;;;;;;;;5083828;28;21095;-76
2023/05/26 12:16:20;;;;;;;5.25;4.07;;;;;;;;;;5083814;28;20402;-76
2023/05/26 12:18:45;;;;;;;4.57;4.10;;;;;;;;;;5083587;28;20106;-76
2023/05/26 12:21:10;;;;;;;4.80;3.33;;;;;;;;;;5084286;28;20139;-78
2023/05/26 12:23:37;;;;;;;15.07;5.78;;;;;;;;;;5083412;28;20099;-78
2023/05/26 12:26:12;;;;;;;15.95;5.75;;;;;;;;;;5083604;28;20037;-76
2023/05/26 12:28:39;;;;;;;8.40;5.22;;;;;;;;;;5083877;28;20423;-76
2023/05/26 12:31:04;;;;;;;8.18;5.10;;;;;;;;;;5082496;28;20058;-75
2023/05/26 12:33:30;;;;;;;9.00;5.43;;;;;;;;;;5083983;28;20459;-75
2023/05/26 12:35:55;;;;;;;5.63;4.97;;;;;;;;;;5083554;28;20032;-75
2023/05/26 12:38:22;;;;;;;6.53;4.47;;;;;;;;;;5082144;28;20032;-74
2023/05/26 12:40:47;;;;;;;7.82;4.85;;;;;;;;;;5083531;28;20024;-76
2023/05/26 12:43:13;;;;;;;6.13;4.45;;;;;;;;;;5083187;28;20046;-77
2023/05/26 12:45:38;;;;;;;7.40;5.03;;;;;;;;;;5083800;28;20118;-76
2023/05/26 12:48:03;;;;;;;5.97;4.88;;;;;;;;;;5083646;28;20102;-76
2023/05/26 12:50:29;;;;;;;9.82;4.85;;;;;;;;;;5083576;28;20024;-74
2023/05/26 12:52:54;;;;;;;8.02;6.60;;;;;;;;;;5082552;28;20023;-75
2023/05/26 12:55:21;;;;;;;9.05;7.13;;;;;;;;;;5083769;28;20034;-75
2023/05/26 12:57:46;;;;;;;8.95;6.50;;;;;;;;;;5083045;28;20455;-75
2023/05/26 13:00:12;;;;;;;6.18;5.55;;;;;;;;;;5083258;28;20073;-75
2023/05/26 13:02:37;;;;;;;7.35;4.47;;;;;;;;;;5083121;28;20023;-75
2023/05/26 13:05:04;;;;;;;7.72;6.70;;;;;;;;;;5082582;28;20059;-77
2023/05/26 13:07:29;;;;;;;7.40;5.75;;;;;;;;;;5083080;28;20020;-76
2023/05/26 13:09:54;;;;;;;8.02;5.95;;;;;;;;;;5081874;28;20390;-75
2023/05/26 13:12:20;;;;;;;6.38;5.30;;;;;;;;;;5082936;28;20028;-75
2023/05/26 13:14:45;;;;;;;7.13;4.95;;;;;;;;;;5082785;28;20035;-75
2023/05/26 13:17:11;;;;;;;7.00;5.40;;;;;;;;;;5083154;28;20027;-77
2023/05/26 13:19:36;;;;;;;5.32;4.68;;;;;;;;;;5081914;28;20447;-75
2023/05/26 13:22:04;;;;;;;6.40;5.65;;;;;;;;;;5082352;28;20359;-74
2023/05/26 13:24:29;;;;;;;8.15;5.78;;;;;;;;;;5083214;28;20024;-75
2023/05/26 13:26:54;;;;;;;7.90;6.07;;;;;;;;;;5082346;28;20035;-74
2023/05/26 13:29:20;;;;;;;9.25;6.50;;;;;;;;;;5082126;28;20027;-74
2023/05/26 13:31:46;;;;;;;6.97;6.03;;;;;;;;;;5080971;28;20024;-75
2023/05/26 13:34:12;;;;;;;7.45;6.25;;;;;;;;;;5069343;28;20282;-75
2023/05/26 13:36:38;;;;;;;8.05;7.03;;;;;;;;;;5059891;28;21113;-74
2023/05/26 13:39:03;;;;;;;9.82;7.80;;;;;;;;;;5079252;28;20473;-74
2023/05/26 13:41:29;;;;;;;7.75;7.05;;;;;;;;;;5069469;28;20019;-75
2023/05/26 13:43:54;;;;;;;8.82;7.25;;;;;;;;;;5072738;28;20035;-76
2023/05/26 13:46:20;;;;;;;7.10;6.25;;;;;;;;;;5072821;28;20028;-75
2023/05/26 13:48:46;;;;;;;7.60;6.90;;;;;;;;;;5074203;28;20028;-77
2023/05/26 13:51:11;;;;;;;12.43;7.45;;;;;;;;;;5067950;28;20055;-75
2023/05/26 13:53:37;;;;;;;9.60;7.90;;;;;;;;;;5073284;28;20016;-76
2023/05/26 13:56:02;;;;;;;25.42;14.75;;;;;;;;;;5067888;28;20031;-77
2023/05/26 13:58:27;;;;;;;34.38;13.00;;;;;;;;;;5068021;28;20024;-76
2023/05/26 14:00:53;;;;;;;23.52;11.27;;;;;;;;;;5068900;28;20074;-75
2023/05/26 14:03:18;;;;;;;12.95;9.15;;;;;;;;;;5067733;28;20028;-77
2023/05/26 14:05:44;;;;;;;9.45;8.45;;;;;;;;;;5069166;28;20494;-75
2023/05/26 14:08:10;;;;;;;12.93;8.73;;;;;;;;;;5072349;28;20028;-76
2023/05/26 14:10:36;;;;;;;9.35;7.70;;;;;;;;;;5069503;28;20073;-74
2023/05/26 14:13:01;;;;;;;9.55;8.38;;;;;;;;;;5059996;28;20027;-76
2023/05/26 14:15:28;;;;;;;12.70;9.82;;;;;;;;;;5067436;28;20035;-77
2023/05/26 14:17:54;;;;;;;14.10;9.82;;;;;;;;;;5072108;28;20377;-77
2023/05/26 14:20:20;;;;;;;17.70;9.55;;;;;;;;;;5081782;28;20020;-75
2023/05/26 14:22:45;;;;;;;11.27;8.80;;;;;;;;;;5071488;28;20354;-76
2023/05/26 14:25:11;;;;;;;12.13;10.27;;;;;;;;;;5086044;28;20024;-77
2023/05/26 14:27:36;;;;;;;11.40;9.52;;;;;;;;;;5086317;28;20028;-75
2023/05/26 14:30:02;;;;;;;13.63;10.07;;;;;;;;;;5086981;28;20024;-76
2023/05/26 14:32:27;;;;;;;10.32;8.80;;;;;;;;;;5078473;28;20081;-78
2023/05/26 14:34:53;;;;;;;22.40;9.85;;;;;;;;;;5081898;28;20355;-75
2023/05/26 14:37:19;;;;;;;14.18;9.75;;;;;;;;;;5084835;28;20040;-78
2023/05/26 14:39:44;;;;;;;10.77;8.98;;;;;;;;;;5077296;28;20047;-77
2023/05/26 14:42:09;;;;;;;9.88;8.88;;;;;;;;;;5082647;28;20099;-78
2023/05/26 14:44:35;;;;;;;14.38;8.60;;;;;;;;;;5084017;28;20016;-77
2023/05/26 14:47:00;;;;;;;11.40;8.18;;;;;;;;;;5075106;28;20481;-77